Time;durP1;ratioP1;P1;durP2;ratioP2;P2;SDS_P1;SDS_P2;PMS_P1;PMS_P2;Temp;Humidity;BMP_temperature;BMP_pressure;BME280_temperature;BME280_humidity;BME280_pressure;Samples;Min_cycle;Max_cycle;Signal;HPM_P1;HPM_P2
2022/07/30 00:02:08;;;;;;;17.50;5.00;;;;;;;28.03;39.65;101953.19;5100282;28;20032;-76
2022/07/30 00:04:33;;;;;;;11.02;4.53;;;;;;;27.63;40.08;101960.28;5083581;28;20030;-76
2022/07/30 00:06:59;;;;;;;6.25;3.97;;;;;;;27.97;39.43;101948.19;5095057;28;20028;-76
2022/07/30 00:09:25;;;;;;;10.32;4.38;;;;;;;27.53;40.29;101955.53;5095790;28;20028;-76
2022/07/30 00:11:50;;;;;;;13.13;4.15;;;;;;;27.62;39.83;101959.44;5094646;28;20020;-76
2022/07/30 00:14:15;;;;;;;10.20;4.40;;;;;;;27.34;40.75;101952.25;5095117;28;20035;-76
2022/07/30 00:16:41;;;;;;;7.68;4.47;;;;;;;27.35;40.82;101953.97;5095772;28;20076;-76
2022/07/30 00:19:06;;;;;;;10.77;4.28;;;;;;;27.74;39.85;101953.28;5081890;28;20028;-77
2022/07/30 00:21:32;;;;;;;6.35;4.30;;;;;;;27.25;40.92;101941.13;5074796;28;20081;-76
2022/07/30 00:23:57;;;;;;;11.18;4.25;;;;;;;27.37;40.84;101944.06;5093128;28;20494;-76
2022/07/30 00:26:23;;;;;;;8.82;5.20;;;;;;;27.63;40.40;101931.63;5078876;28;20035;-76
2022/07/30 00:28:48;;;;;;;8.93;4.47;;;;;;;27.30;40.68;101931.94;5074587;28;20024;-76
2022/07/30 00:31:13;;;;;;;7.82;4.32;;;;;;;27.58;39.83;101931.91;5092874;28;20027;-76
2022/07/30 00:33:39;;;;;;;10.07;4.57;;;;;;;27.59;40.34;101932.78;5075100;28;20070;-76
2022/07/30 00:36:04;;;;;;;12.27;4.80;;;;;;;27.33;40.45;101931.75;5073559;28;20500;-77
2022/07/30 00:38:29;;;;;;;13.23;5.10;;;;;;;27.32;40.44;101921.97;5074845;28;20031;-76
2022/07/30 00:40:55;;;;;;;9.23;5.03;;;;;;;27.62;39.98;101921.00;5085544;28;20031;-76
2022/07/30 00:43:20;;;;;;;8.75;5.28;;;;;;;27.73;39.63;101930.06;5089702;28;20044;-76
2022/07/30 00:45:46;;;;;;;9.98;5.38;;;;;;;27.63;39.88;101928.06;5093746;28;20039;-77
2022/07/30 00:48:13;;;;;;;7.47;4.82;;;;;;;27.12;40.42;101928.59;5112447;28;20023;-76
2022/07/30 00:50:39;;;;;;;9.10;4.60;;;;;;;27.54;40.00;101925.03;5106577;28;20059;-76
2022/07/30 00:53:05;;;;;;;8.68;4.72;;;;;;;26.95;40.94;101932.34;5074267;28;20564;-76
2022/07/30 00:55:30;;;;;;;9.80;4.60;;;;;;;26.59;42.23;101931.81;5074075;28;20352;-76
2022/07/30 00:57:56;;;;;;;7.57;4.38;;;;;;;27.05;41.28;101930.81;5075488;28;20035;-76
2022/07/30 01:00:22;;;;;;;10.93;4.38;;;;;;;27.24;40.81;101928.72;5081241;28;20073;-76
2022/07/30 01:02:48;;;;;;;6.53;4.50;;;;;;;26.78;41.66;101931.59;5092470;28;20527;-76
2022/07/30 01:05:14;;;;;;;9.55;4.85;;;;;;;26.61;41.90;101923.66;5096178;28;20078;-76
2022/07/30 01:07:40;;;;;;;9.20;5.90;;;;;;;26.81;41.95;101930.53;5085366;28;20487;-78
2022/07/30 01:10:08;;;;;;;8.75;4.75;;;;;;;26.91;41.37;101924.50;5090645;28;20106;-76
2022/07/30 01:12:34;;;;;;;6.53;4.30;;;;;;;26.69;41.59;101922.22;5092751;28;20065;-76
2022/07/30 01:15:02;;;;;;;7.30;4.15;;;;;;;26.75;41.65;101926.41;5081675;28;20070;-76
2022/07/30 01:17:27;;;;;;;8.73;4.45;;;;;;;27.26;40.48;101923.25;5091627;28;20023;-76
2022/07/30 01:20:00;;;;;;;7.80;4.35;;;;;;;27.47;40.16;101923.69;5074252;28;20126;-76
2022/07/30 01:22:32;;;;;;;7.60;4.05;;;;;;;27.09;40.66;101930.53;5091909;28;20036;-76
2022/07/30 01:25:26;;;;;;;9.65;4.60;;;;;;;27.03;41.07;101930.06;5090410;28;20032;-76
2022/07/30 01:28:14;;;;;;;9.07;4.70;;;;;;;26.99;41.21;101923.16;5059761;28;20098;-76
2022/07/30 01:30:42;;;;;;;6.53;4.03;;;;;;;26.78;40.98;101923.53;5093974;28;20024;-76
2022/07/30 01:33:11;;;;;;;8.25;4.35;;;;;;;27.06;40.96;101922.66;5073531;28;20031;-76
2022/07/30 01:35:39;;;;;;;6.05;4.88;;;;;;;27.17;40.26;101911.25;5088549;28;20034;-76
2022/07/30 01:38:05;;;;;;;5.30;4.07;;;;;;;26.94;40.86;101909.16;5075504;28;20028;-76
2022/07/30 01:40:31;;;;;;;8.40;4.45;;;;;;;27.00;40.42;101916.84;5091185;28;20111;-76
2022/07/30 01:43:00;;;;;;;13.05;4.65;;;;;;;27.12;40.07;101910.69;5073799;28;20048;-76
2022/07/30 01:45:28;;;;;;;9.07;4.40;;;;;;;27.57;39.40;101914.09;5073284;28;20028;-76
2022/07/30 01:47:59;;;;;;;10.38;5.25;;;;;;;27.12;40.32;101918.75;5073807;28;20020;-76
2022/07/30 01:50:27;;;;;;;7.25;5.03;;;;;;;26.80;41.02;101913.56;5077276;28;20055;-76
2022/07/30 01:52:55;;;;;;;8.55;4.78;;;;;;;26.78;41.59;101919.97;5072500;28;20024;-76
2022/07/30 01:55:33;;;;;;;7.15;4.15;;;;;;;26.83;41.23;101924.13;5091633;28;20383;-76
2022/07/30 01:58:00;;;;;;;9.55;5.32;;;;;;;26.81;41.22;101926.03;5077508;28;20023;-76
2022/07/30 02:00:29;;;;;;;5.07;4.38;;;;;;;26.70;41.37;101924.00;5105143;28;20032;-76
2022/07/30 02:02:55;;;;;;;10.48;5.13;;;;;;;26.92;40.63;101923.53;5092172;28;20039;-76
2022/07/30 02:05:21;;;;;;;8.68;5.78;;;;;;;26.54;41.76;101929.41;5075665;28;20031;-76
2022/07/30 02:08:02;;;;;;;5.82;4.63;;;;;;;26.85;41.20;101922.19;5095384;28;20054;-76
2022/07/30 02:10:33;;;;;;;13.30;5.30;;;;;;;26.78;40.98;101918.16;5096233;28;20081;-76
2022/07/30 02:13:01;;;;;;;7.37;5.20;;;;;;;26.82;41.07;101922.38;5081886;28;20077;-76
2022/07/30 02:15:30;;;;;;;6.55;5.05;;;;;;;26.29;41.98;101923.78;5097428;28;20080;-76
2022/07/30 02:18:31;;;;;;;23.58;5.90;;;;;;;26.43;41.58;101926.50;5097998;28;20031;-76
2022/07/30 02:21:03;;;;;;;7.18;4.75;;;;;;;26.61;41.42;101934.38;5097362;28;20059;-76
2022/07/30 02:23:31;;;;;;;8.18;4.70;;;;;;;26.65;41.39;101933.25;5090373;28;20057;-77
2022/07/30 02:25:59;;;;;;;9.05;4.60;;;;;;;26.48;41.39;101928.91;5095762;28;20456;-76
2022/07/30 02:28:26;;;;;;;10.10;4.85;;;;;;;26.72;41.05;101932.81;5076775;28;20035;-76
2022/07/30 02:30:56;;;;;;;9.10;5.03;;;;;;;26.80;40.71;101935.00;5077379;28;20016;-77
2022/07/30 02:33:25;;;;;;;8.73;4.35;;;;;;;26.43;41.64;101929.19;5077209;28;20073;-76
2022/07/30 02:35:53;;;;;;;7.43;4.53;;;;;;;26.69;40.79;101937.47;5094709;28;20049;-76
2022/07/30 02:38:19;;;;;;;5.80;4.22;;;;;;;25.93;42.06;101933.88;5107197;28;20032;-76
2022/07/30 02:40:46;;;;;;;8.18;4.25;;;;;;;26.45;41.62;101929.97;5097416;28;20402;-76
2022/07/30 02:43:15;;;;;;;8.23;4.07;;;;;;;26.26;41.69;101929.34;5114879;28;20495;-76
2022/07/30 02:45:42;;;;;;;7.13;4.43;;;;;;;26.42;41.58;101924.78;5079859;28;20088;-76
2022/07/30 02:48:09;;;;;;;8.10;4.20;;;;;;;26.53;40.90;101924.13;5094844;28;20387;-77
2022/07/30 02:50:35;;;;;;;5.35;4.60;;;;;;;26.73;40.52;101914.91;5094684;28;20128;-76
2022/07/30 02:53:03;;;;;;;6.57;4.47;;;;;;;26.05;41.83;101916.25;5094853;28;20024;-76
2022/07/30 02:55:31;;;;;;;5.60;4.32;;;;;;;26.67;40.49;101917.94;5075291;28;20032;-77
2022/07/30 02:57:58;;;;;;;5.05;3.85;;;;;;;25.90;42.09;101916.16;5076805;28;20391;-76
2022/07/30 03:00:25;;;;;;;6.13;4.13;;;;;;;26.15;41.47;101909.41;5094945;28;20023;-76
2022/07/30 03:02:52;;;;;;;4.43;4.03;;;;;;;26.54;40.98;101924.06;5104995;28;20023;-76
2022/07/30 03:05:18;;;;;;;4.93;3.80;;;;;;;26.26;41.23;101924.00;5095858;28;20030;-76
2022/07/30 03:07:45;;;;;;;10.00;4.32;;;;;;;26.22;41.48;101918.78;5096876;28;20596;-76
2022/07/30 03:10:12;;;;;;;9.00;4.70;;;;;;;26.48;41.16;101929.78;5075785;28;20020;-76
2022/07/30 03:12:40;;;;;;;5.90;4.20;;;;;;;26.20;41.34;101920.72;5103351;28;20027;-77
2022/07/30 03:15:06;;;;;;;9.88;4.43;;;;;;;26.10;41.57;101930.22;5102741;28;20043;-76
2022/07/30 03:17:37;;;;;;;6.30;4.78;;;;;;;26.19;41.69;101939.56;5107713;28;20031;-77
2022/07/30 03:20:04;;;;;;;7.47;5.00;;;;;;;26.05;42.22;101926.97;5088209;28;20028;-76
2022/07/30 03:22:33;;;;;;;6.78;4.75;;;;;;;26.24;41.41;101927.63;5076278;28;20081;-76
2022/07/30 03:25:01;;;;;;;6.82;4.43;;;;;;;26.40;41.12;101927.53;5076072;28;20074;-76
2022/07/30 03:27:27;;;;;;;8.35;4.65;;;;;;;26.22;41.83;101923.28;5085240;28;20372;-77
2022/07/30 03:29:54;;;;;;;4.00;3.60;;;;;;;26.42;40.67;101919.44;5114804;28;20023;-76
2022/07/30 03:32:21;;;;;;;9.10;4.65;;;;;;;26.53;40.59;101927.69;5114141;28;20026;-76
2022/07/30 03:34:47;;;;;;;7.53;4.90;;;;;;;26.13;41.64;101923.81;5104939;28;20031;-76
2022/07/30 03:37:13;;;;;;;8.75;5.18;;;;;;;26.23;41.45;101923.19;5101105;28;20023;-76
2022/07/30 03:39:39;;;;;;;7.93;5.05;;;;;;;26.36;41.19;101923.31;5096555;28;20085;-76
2022/07/30 03:42:06;;;;;;;7.45;4.70;;;;;;;26.22;41.55;101929.50;5075874;28;20039;-76
2022/07/30 03:44:33;;;;;;;7.53;4.55;;;;;;;26.22;41.48;101921.47;5075751;28;20094;-76
2022/07/30 03:46:59;;;;;;;6.43;4.32;;;;;;;26.05;42.06;101927.81;5075398;28;20023;-76
2022/07/30 03:49:25;;;;;;;8.73;4.57;;;;;;;26.34;41.28;101929.75;5089649;28;20040;-77
2022/07/30 03:51:52;;;;;;;5.80;4.63;;;;;;;26.23;41.64;101925.88;5094586;28;20023;-77
2022/07/30 03:54:18;;;;;;;5.43;4.88;;;;;;;26.29;41.64;101926.47;5096095;28;20019;-77
2022/07/30 03:56:43;;;;;;;5.70;4.75;;;;;;;26.17;41.66;101939.66;5096387;28;20016;-77
2022/07/30 03:59:09;;;;;;;9.48;4.75;;;;;;;26.44;41.27;101938.09;5111981;28;20076;-77
2022/07/30 04:01:35;;;;;;;10.05;4.97;;;;;;;26.31;41.26;101932.59;5095861;28;20059;-77
2022/07/30 04:04:07;;;;;;;6.53;4.20;;;;;;;26.03;42.17;101935.06;5087168;28;20051;-77
2022/07/30 04:06:38;;;;;;;7.43;4.93;;;;;;;26.39;40.90;101935.69;5093393;28;20035;-77
2022/07/30 04:09:11;;;;;;;8.30;4.90;;;;;;;25.84;42.63;101939.75;5108824;28;20051;-77
2022/07/30 04:11:36;;;;;;;10.75;5.30;;;;;;;26.07;41.82;101944.66;5093946;28;20071;-77
2022/07/30 04:14:02;;;;;;;6.78;4.88;;;;;;;26.02;42.18;101948.56;5075011;28;20484;-77
2022/07/30 04:16:41;;;;;;;7.55;5.05;;;;;;;26.21;41.68;101951.91;5094371;28;20107;-77
2022/07/30 04:19:14;;;;;;;6.90;4.93;;;;;;;26.14;41.82;101953.19;5100541;28;20024;-77
2022/07/30 04:21:40;;;;;;;7.00;5.00;;;;;;;25.84;42.67;101950.44;5074509;28;20122;-77
2022/07/30 04:24:07;;;;;;;8.48;5.18;;;;;;;26.14;41.81;101953.19;5109403;28;20032;-77
2022/07/30 04:26:35;;;;;;;10.27;4.93;;;;;;;26.76;40.24;101954.94;5087377;28;20050;-77
2022/07/30 04:29:03;;;;;;;6.22;4.78;;;;;;;26.61;40.98;101955.84;5100305;28;20082;-77
2022/07/30 04:31:34;;;;;;;7.65;4.90;;;;;;;26.20;42.02;101958.22;5074805;28;20468;-77
2022/07/30 04:33:59;;;;;;;9.52;5.68;;;;;;;26.36;41.52;101957.31;5092717;28;20395;-77
2022/07/30 04:36:25;;;;;;;10.65;5.00;;;;;;;26.35;41.04;101960.94;5075043;28;20039;-77
2022/07/30 04:38:50;;;;;;;6.70;5.22;;;;;;;26.31;41.22;101956.72;5074928;28;20024;-77
2022/07/30 04:41:16;;;;;;;10.40;5.43;;;;;;;26.48;41.06;101961.94;5074218;28;20111;-77
2022/07/30 04:43:41;;;;;;;13.48;5.25;;;;;;;26.42;41.47;101952.44;5088934;28;20483;-77
2022/07/30 04:46:06;;;;;;;10.77;4.72;;;;;;;26.72;40.51;101964.13;5087646;28;20465;-77
2022/07/30 04:48:32;;;;;;;7.85;5.28;;;;;;;26.85;40.52;101958.88;5072492;28;20024;-77
2022/07/30 04:51:01;;;;;;;5.97;4.93;;;;;;;26.52;41.39;101958.13;5074404;28;20523;-77
2022/07/30 04:53:28;;;;;;;7.30;5.15;;;;;;;26.47;41.02;101956.66;5080942;28;20028;-77
2022/07/30 04:55:55;;;;;;;6.85;4.95;;;;;;;26.56;41.13;101954.28;5072167;28;20496;-77
2022/07/30 04:58:22;;;;;;;7.60;5.47;;;;;;;26.84;40.57;101955.31;5072581;28;20031;-77
2022/07/30 05:00:50;;;;;;;7.22;4.63;;;;;;;26.95;40.56;101956.50;5074054;28;20028;-77
2022/07/30 05:03:16;;;;;;;5.15;4.43;;;;;;;26.85;40.73;101970.47;5070805;28;20028;-77
2022/07/30 05:05:42;;;;;;;12.73;5.07;;;;;;;26.65;41.22;101968.94;5070644;28;20415;-77
2022/07/30 05:08:08;;;;;;;11.32;5.00;;;;;;;26.80;41.17;101964.50;5076816;28;20032;-77
2022/07/30 05:10:33;;;;;;;7.25;4.85;;;;;;;26.75;40.95;101974.69;5078494;28;20025;-76
2022/07/30 05:12:58;;;;;;;11.63;4.60;;;;;;;25.73;43.39;101972.47;5073033;28;20028;-77
2022/07/30 05:15:24;;;;;;;8.20;5.38;;;;;;;25.99;42.48;101973.66;5091371;28;20031;-77
2022/07/30 05:17:50;;;;;;;6.60;5.40;;;;;;;25.93;42.66;101970.50;5091013;28;20028;-77
2022/07/30 05:20:16;;;;;;;9.00;4.88;;;;;;;26.40;41.94;101973.09;5089052;28;20032;-76
2022/07/30 05:22:41;;;;;;;9.57;4.88;;;;;;;26.86;40.73;101977.56;5090391;28;20024;-77
2022/07/30 05:25:07;;;;;;;7.32;4.93;;;;;;;27.21;40.14;101981.69;5090973;28;20135;-77
2022/07/30 05:27:32;;;;;;;6.15;4.75;;;;;;;26.52;41.70;101973.34;5090351;28;20042;-77
2022/07/30 05:29:58;;;;;;;8.25;4.30;;;;;;;27.22;40.26;101984.28;5079090;28;20062;-77
2022/07/30 05:32:23;;;;;;;7.03;4.47;;;;;;;26.71;41.09;101989.22;5070136;28;20020;-77
2022/07/30 05:34:49;;;;;;;9.40;5.50;;;;;;;26.95;40.79;101996.72;5079364;28;20049;-77
2022/07/30 05:37:14;;;;;;;8.18;4.70;;;;;;;27.05;40.91;101997.88;5071443;28;20032;-77
2022/07/30 05:39:39;;;;;;;10.77;5.63;;;;;;;27.40;40.10;101992.16;5070657;28;20052;-77
2022/07/30 05:42:05;;;;;;;6.40;4.30;;;;;;;27.63;39.64;102003.25;5071042;28;20063;-77
2022/07/30 05:44:30;;;;;;;7.63;4.30;;;;;;;27.98;38.67;101992.91;5069896;28;20061;-77
2022/07/30 05:46:55;;;;;;;9.63;4.55;;;;;;;27.81;39.39;102002.06;5087561;28;20469;-77
2022/07/30 05:49:21;;;;;;;7.63;4.25;;;;;;;27.21;40.73;101992.44;5070707;28;20024;-77
2022/07/30 05:51:46;;;;;;;8.88;4.50;;;;;;;27.46;40.18;101997.13;5079049;28;20034;-77
2022/07/30 05:54:12;;;;;;;14.32;4.30;;;;;;;27.22;41.00;102010.25;5086724;28;20049;-77
2022/07/30 05:56:39;;;;;;;10.40;4.35;;;;;;;27.53;39.96;102001.19;5073267;28;20035;-77
2022/07/30 05:59:05;;;;;;;8.48;4.00;;;;;;;27.33;40.32;102001.53;5071599;28;20036;-77
2022/07/30 06:01:30;;;;;;;7.18;3.92;;;;;;;27.18;41.06;102004.22;5069644;28;20100;-77
2022/07/30 06:03:55;;;;;;;6.22;3.40;;;;;;;27.82;39.17;101997.56;5084312;28;20070;-77
2022/07/30 06:06:21;;;;;;;7.05;3.40;;;;;;;26.82;41.31;101997.47;5091066;28;20396;-77
2022/07/30 06:08:47;;;;;;;8.95;3.28;;;;;;;27.01;40.68;102015.13;5090563;28;20031;-77
2022/07/30 06:11:12;;;;;;;7.55;3.45;;;;;;;27.29;40.62;102008.06;5090393;28;20361;-77
2022/07/30 06:13:38;;;;;;;3.10;2.80;;;;;;;27.59;39.74;102008.81;5090114;28;20031;-76
2022/07/30 06:16:04;;;;;;;6.40;2.88;;;;;;;27.33;40.20;102012.28;5091938;28;20472;-77
2022/07/30 06:18:29;;;;;;;8.82;2.80;;;;;;;26.96;41.07;102009.19;5090913;28;20020;-77
2022/07/30 06:20:54;;;;;;;8.95;3.28;;;;;;;26.23;42.04;102005.41;5089760;28;20055;-77
2022/07/30 06:23:20;;;;;;;7.07;3.08;;;;;;;27.57;39.84;102016.13;5090842;28;20036;-77
2022/07/30 06:25:47;;;;;;;7.57;2.90;;;;;;;27.35;39.97;102015.72;5090598;28;20020;-76
2022/07/30 06:28:13;;;;;;;7.38;3.17;;;;;;;27.25;40.90;102010.91;5090150;28;20070;-76
2022/07/30 06:30:39;;;;;;;6.85;2.70;;;;;;;27.95;39.23;102003.00;5091808;28;20028;-76
2022/07/30 06:33:05;;;;;;;4.38;3.10;;;;;;;26.51;41.67;102004.63;5090488;28;20419;-76
2022/07/30 06:35:31;;;;;;;3.75;2.30;;;;;;;27.72;39.26;101999.97;5089897;28;20032;-77
2022/07/30 06:37:56;;;;;;;4.05;2.40;;;;;;;26.75;40.81;102004.19;5091858;28;20111;-77
2022/07/30 06:40:22;;;;;;;5.35;2.05;;;;;;;26.59;40.76;102007.72;5091848;28;20060;-76
2022/07/30 06:42:47;;;;;;;3.65;1.65;;;;;;;27.86;39.23;102005.34;5089357;28;20068;-76
2022/07/30 06:45:13;;;;;;;3.13;1.52;;;;;;;28.92;36.72;101989.31;5091698;28;20023;-77
2022/07/30 06:47:38;;;;;;;2.72;1.50;;;;;;;30.21;33.67;101994.44;5089920;28;20028;-77
2022/07/30 06:50:04;;;;;;;4.45;1.25;;;;;;;31.19;31.58;101998.63;5090442;28;20040;-77
2022/07/30 06:52:29;;;;;;;3.53;1.20;;;;;;;32.47;30.46;101998.09;5094061;28;20024;-77
2022/07/30 06:54:55;;;;;;;2.33;1.23;;;;;;;31.85;30.01;102007.78;5094280;28;20494;-76
2022/07/30 06:57:20;;;;;;;4.18;1.05;;;;;;;32.17;29.64;102001.56;5093899;28;20126;-76
2022/07/30 06:59:46;;;;;;;2.50;0.95;;;;;;;34.41;27.62;101995.41;5094009;28;20020;-76
2022/07/30 07:02:11;;;;;;;4.53;1.13;;;;;;;34.69;26.21;102003.63;5092978;28;20016;-77
2022/07/30 07:04:36;;;;;;;4.10;0.90;;;;;;;34.04;27.52;102010.50;5093683;28;20495;-78
2022/07/30 07:07:02;;;;;;;3.63;1.23;;;;;;;35.65;24.99;102009.72;5093681;28;20096;-77
2022/07/30 07:09:28;;;;;;;4.40;1.00;;;;;;;35.69;25.25;102006.69;5093091;28;20434;-77
2022/07/30 07:11:53;;;;;;;4.13;1.00;;;;;;;35.89;25.47;102011.03;5094900;28;20028;-77
2022/07/30 07:14:18;;;;;;;3.63;0.65;;;;;;;35.81;24.20;102008.19;5094914;28;20023;-77
2022/07/30 07:16:44;;;;;;;3.45;1.00;;;;;;;36.84;24.23;102008.59;5092735;28;20085;-78
2022/07/30 07:19:09;;;;;;;1.88;1.00;;;;;;;36.06;23.91;102008.47;5093974;28;20024;-78
2022/07/30 07:21:35;;;;;;;3.10;1.13;;;;;;;36.30;24.54;102008.69;5093740;28;20522;-78
2022/07/30 07:24:01;;;;;;;4.00;1.10;;;;;;;37.78;22.21;102010.56;5093218;28;20028;-78
2022/07/30 07:26:27;;;;;;;5.43;1.08;;;;;;;38.40;22.14;102012.00;5093729;28;20164;-78
2022/07/30 07:28:53;;;;;;;4.03;1.00;;;;;;;36.11;23.97;102015.16;5093827;28;20536;-79
2022/07/30 07:31:18;;;;;;;2.83;0.90;;;;;;;37.55;21.99;102019.38;5094499;28;20054;-78
2022/07/30 07:33:45;;;;;;;6.50;1.20;;;;;;;38.36;21.91;102019.69;5093627;28;20495;-78
2022/07/30 07:36:11;;;;;;;1.98;0.80;;;;;;;36.68;22.75;102019.34;5093444;28;20028;-77
2022/07/30 07:38:36;;;;;;;1.85;0.90;;;;;;;37.45;23.17;102021.34;5093073;28;20016;-78
2022/07/30 07:41:02;;;;;;;2.72;0.85;;;;;;;37.34;22.45;102020.66;5093111;28;20463;-78
2022/07/30 07:43:27;;;;;;;4.38;1.20;;;;;;;37.92;20.96;102026.28;5104829;28;20052;-77
2022/07/30 07:45:54;;;;;;;3.97;1.08;;;;;;;38.30;21.89;102031.28;5114309;28;20071;-78
2022/07/30 07:48:19;;;;;;;1.95;0.80;;;;;;;38.94;21.13;102027.81;5096641;28;20388;-78
2022/07/30 07:50:45;;;;;;;3.85;1.67;;;;;;;39.69;19.45;102038.31;5096618;28;20035;-77
2022/07/30 07:53:11;;;;;;;3.47;0.90;;;;;;;36.78;21.74;102031.03;5096124;28;20019;-77
2022/07/30 07:55:37;;;;;;;5.22;0.95;;;;;;;38.26;20.95;102032.66;5096429;28;20471;-77
2022/07/30 07:58:02;;;;;;;1.00;0.60;;;;;;;39.25;20.51;102029.78;5095901;28;20024;-78
2022/07/30 08:00:28;;;;;;;1.98;0.85;;;;;;;36.99;22.10;102022.47;5096395;28;20049;-78
2022/07/30 08:02:53;;;;;;;1.98;1.20;;;;;;;38.22;20.55;102018.44;5096269;28;20027;-78
2022/07/30 08:05:19;;;;;;;2.28;1.13;;;;;;;38.78;19.91;102017.78;5113797;28;20131;-78
2022/07/30 08:07:44;;;;;;;1.52;1.08;;;;;;;38.56;21.75;102014.72;5096517;28;20047;-79
2022/07/30 08:10:12;;;;;;;3.88;1.00;;;;;;;38.89;20.63;102013.84;5114378;28;20102;-79
2022/07/30 08:12:38;;;;;;;4.10;1.00;;;;;;;39.87;20.22;102018.00;5113722;28;20027;-78
2022/07/30 08:15:04;;;;;;;1.50;0.90;;;;;;;39.46;19.22;102012.78;5095825;28;20440;-78
2022/07/30 08:17:29;;;;;;;3.08;0.85;;;;;;;39.28;19.73;102002.97;5096162;28;20052;-77
2022/07/30 08:19:59;;;;;;;2.25;1.20;;;;;;;39.62;20.06;102009.97;5095130;28;20028;-78
2022/07/30 08:22:25;;;;;;;4.68;0.98;;;;;;;40.50;18.89;102007.78;5113943;28;20032;-78
2022/07/30 08:24:50;;;;;;;1.48;0.80;;;;;;;39.76;19.33;102022.00;5095882;28;20056;-79
2022/07/30 08:27:16;;;;;;;2.22;0.73;;;;;;;40.82;20.04;102007.63;5095219;28;20023;-79
2022/07/30 08:29:41;;;;;;;2.15;0.90;;;;;;;40.36;18.18;102023.13;5095460;28;20383;-78
2022/07/30 08:32:07;;;;;;;2.22;0.90;;;;;;;38.71;19.70;102019.53;5114193;28;20023;-78
2022/07/30 08:34:32;;;;;;;2.10;0.80;;;;;;;41.21;18.09;102009.25;5095047;28;20024;-79
2022/07/30 08:36:57;;;;;;;2.83;0.95;;;;;;;40.90;18.24;102004.78;5095784;28;20591;-79
2022/07/30 08:39:23;;;;;;;2.10;0.75;;;;;;;37.23;20.71;102011.88;5095690;28;20030;-79
2022/07/30 08:41:49;;;;;;;1.95;0.70;;;;;;;37.07;22.52;102012.63;5094849;28;20046;-79
2022/07/30 08:44:17;;;;;;;1.20;0.57;;;;;;;35.84;21.54;102016.06;5092190;28;20063;-79
2022/07/30 08:46:44;;;;;;;2.65;1.08;;;;;;;36.02;22.86;102012.50;5092288;28;20024;-78
2022/07/30 08:49:11;;;;;;;4.03;0.73;;;;;;;35.88;22.09;102014.75;5091578;28;20024;-79
2022/07/30 08:51:37;;;;;;;1.88;0.70;;;;;;;37.28;20.60;102010.38;5092271;28;20063;-78
2022/07/30 08:54:03;;;;;;;1.90;0.77;;;;;;;38.19;20.25;102014.19;5091829;28;20019;-78
2022/07/30 08:56:29;;;;;;;2.75;0.95;;;;;;;39.49;18.43;102018.75;5091468;28;20027;-80
2022/07/30 08:58:54;;;;;;;4.20;0.85;;;;;;;40.08;18.29;102024.75;5091941;28;20101;-79
2022/07/30 09:01:21;;;;;;;1.67;0.70;;;;;;;34.75;22.26;102030.22;5092889;28;20032;-80
2022/07/30 09:03:46;;;;;;;3.22;0.80;;;;;;;38.44;19.25;102027.03;5093299;28;20020;-78
2022/07/30 09:06:12;;;;;;;0.93;0.70;;;;;;;39.03;19.50;102033.09;5092746;28;20088;-78
2022/07/30 09:08:37;;;;;;;2.63;0.70;;;;;;;39.39;19.35;102020.81;5091292;28;20028;-79
2022/07/30 09:11:03;;;;;;;1.83;0.90;;;;;;;40.97;17.56;102019.50;5091613;28;20107;-78
2022/07/30 09:13:36;;;;;;;1.73;0.95;;;;;;;34.37;22.82;102026.53;5091380;28;20118;-79
2022/07/30 09:16:03;;;;;;;3.50;1.08;;;;;;;34.43;23.71;102031.38;5092330;28;20042;-79
2022/07/30 09:18:31;;;;;;;3.13;1.30;;;;;;;38.80;21.32;102021.19;5091794;28;20036;-79
2022/07/30 09:20:59;;;;;;;2.40;1.00;;;;;;;39.36;19.53;102024.81;5091520;28;20399;-79
2022/07/30 09:23:24;;;;;;;1.65;0.88;;;;;;;39.07;19.19;102025.38;5092371;28;20110;-79
2022/07/30 09:25:50;;;;;;;1.35;0.90;;;;;;;40.55;19.07;102031.91;5091470;28;20059;-78
2022/07/30 09:28:25;;;;;;;2.70;0.93;;;;;;;39.79;18.53;102037.22;5092762;28;20059;-79
2022/07/30 09:30:53;;;;;;;2.83;0.90;;;;;;;39.14;18.03;102022.81;5091113;28;20019;-78
2022/07/30 09:33:36;;;;;;;3.85;1.00;;;;;;;39.23;18.10;102027.25;5091684;28;20048;-79
2022/07/30 09:36:07;;;;;;;1.30;0.85;;;;;;;38.81;18.95;102028.38;5092908;28;20032;-78
2022/07/30 09:38:50;;;;;;;2.90;0.80;;;;;;;40.43;18.39;102022.41;5090737;28;20026;-79
2022/07/30 09:41:17;;;;;;;1.95;0.82;;;;;;;41.63;17.05;102018.66;5091424;28;20060;-79
2022/07/30 09:43:47;;;;;;;1.50;0.80;;;;;;;38.96;19.70;102014.84;5090697;28;20088;-80
2022/07/30 09:46:14;;;;;;;2.90;0.75;;;;;;;39.81;18.34;102024.22;5091687;28;20043;-79
2022/07/30 09:48:40;;;;;;;3.13;0.90;;;;;;;38.47;18.84;102021.22;5091617;28;20020;-80
2022/07/30 09:51:05;;;;;;;2.50;0.77;;;;;;;39.52;18.85;102018.38;5090450;28;20035;-78
2022/07/30 09:53:31;;;;;;;1.30;0.55;;;;;;;41.04;17.48;102014.94;5091299;28;20016;-79
2022/07/30 09:55:58;;;;;;;2.80;1.20;;;;;;;41.01;16.69;102014.47;5092612;28;20391;-78
2022/07/30 09:58:36;;;;;;;2.42;0.85;;;;;;;39.92;18.68;102010.13;5090263;28;20023;-79
2022/07/30 10:01:02;;;;;;;3.38;1.13;;;;;;;36.77;20.52;102012.13;5090766;28;20369;-79
2022/07/30 10:03:27;;;;;;;3.03;0.90;;;;;;;38.02;20.14;102005.16;5091033;28;20115;-78
2022/07/30 10:05:56;;;;;;;3.88;1.08;;;;;;;40.42;17.57;102015.22;5091388;28;20028;-77
2022/07/30 10:08:50;;;;;;;5.72;1.08;;;;;;;38.41;19.28;102013.72;5092055;28;20123;-78
2022/07/30 10:11:18;;;;;;;2.47;1.42;;;;;;;39.64;19.54;102018.88;5091217;28;20028;-79
2022/07/30 10:13:47;;;;;;;1.13;0.68;;;;;;;39.58;18.60;102016.81;5090488;28;20028;-79
2022/07/30 10:16:12;;;;;;;1.85;1.00;;;;;;;39.59;18.69;102007.56;5092318;28;20027;-79
2022/07/30 10:18:41;;;;;;;3.08;1.30;;;;;;;39.90;18.44;102012.19;5091460;28;20384;-79
2022/07/30 10:21:07;;;;;;;2.58;0.80;;;;;;;40.25;17.83;102017.25;5090661;28;20077;-79
2022/07/30 10:23:34;;;;;;;2.13;0.77;;;;;;;38.45;18.69;102023.28;5090992;28;20027;-79
2022/07/30 10:25:59;;;;;;;2.47;0.93;;;;;;;37.48;20.82;102021.03;5091833;28;20028;-78
2022/07/30 10:28:28;;;;;;;1.23;0.88;;;;;;;37.97;20.64;102021.16;5094926;28;20074;-78
2022/07/30 10:30:56;;;;;;;3.80;0.93;;;;;;;39.15;18.98;102019.06;5094822;28;20020;-78
2022/07/30 10:33:24;;;;;;;1.80;1.00;;;;;;;36.02;20.78;102023.38;5093729;28;20543;-79
2022/07/30 10:35:50;;;;;;;2.30;1.10;;;;;;;35.47;22.51;102025.13;5094656;28;20020;-78
2022/07/30 10:38:17;;;;;;;2.83;0.98;;;;;;;38.07;21.01;102014.69;5094360;28;20092;-79
2022/07/30 10:41:08;;;;;;;3.75;1.30;;;;;;;37.99;19.67;102013.69;5093994;28;20113;-78
2022/07/30 10:43:52;;;;;;;1.27;0.82;;;;;;;38.35;19.71;102013.38;5094256;28;20071;-77
2022/07/30 10:47:03;;;;;;;1.48;0.90;;;;;;;38.35;19.92;102013.38;5095618;28;20027;-78
2022/07/30 10:49:29;;;;;;;2.25;0.90;;;;;;;38.25;19.70;102012.72;5084224;28;20028;-79
2022/07/30 10:51:54;;;;;;;2.90;0.90;;;;;;;37.67;20.44;102004.41;5094290;28;20032;-77
2022/07/30 10:54:32;;;;;;;1.02;0.77;;;;;;;37.49;19.76;102009.94;5094982;28;20035;-78
2022/07/30 10:57:11;;;;;;;4.82;0.90;;;;;;;36.47;21.81;102011.56;5095387;28;20020;-78
2022/07/30 10:59:49;;;;;;;2.80;0.90;;;;;;;37.40;21.23;102004.63;5095354;28;20103;-78
2022/07/30 11:02:19;;;;;;;3.38;1.13;;;;;;;36.32;21.19;101998.50;5093359;28;20028;-77
2022/07/30 11:04:44;;;;;;;1.42;1.00;;;;;;;36.77;21.06;102001.22;5093840;28;20111;-79
2022/07/30 11:07:28;;;;;;;3.33;1.63;;;;;;;36.99;21.51;101989.78;5093875;28;20140;-78
2022/07/30 11:09:59;;;;;;;2.55;1.27;;;;;;;37.06;21.37;102000.06;5093375;28;20072;-78
2022/07/30 11:12:46;;;;;;;5.00;1.35;;;;;;;37.65;21.22;101989.22;5095539;28;20116;-78
2022/07/30 11:15:12;;;;;;;1.48;1.00;;;;;;;37.04;21.66;101992.03;5076474;28;20035;-78
2022/07/30 11:17:58;;;;;;;3.53;0.95;;;;;;;35.69;22.16;102012.97;5093897;28;20118;-79
2022/07/30 11:20:23;;;;;;;2.78;1.17;;;;;;;35.80;22.39;102006.47;5093847;28;20459;-78
2022/07/30 11:22:49;;;;;;;2.33;1.13;;;;;;;37.33;21.25;102008.03;5092810;28;20055;-78
2022/07/30 11:25:20;;;;;;;2.00;1.15;;;;;;;35.44;22.79;102009.13;5093625;28;20062;-78
2022/07/30 11:27:47;;;;;;;3.47;1.10;;;;;;;33.75;24.74;102003.16;5093738;28;20130;-79